sensor_id;sensor_type;location;lat;lon;timestamp;temperature;humidity
31765;DHT22;18338;53.240;8.798;2023-06-04T00:02:15;10.00;99.90
31765;DHT22;18338;53.240;8.798;2023-06-04T00:04:42;10.00;99.90
31765;DHT22;18338;53.240;8.798;2023-06-04T00:07:09;9.90;99.90
31765;DHT22;18338;53.240;8.798;2023-06-04T00:09:36;9.90;99.90
31765;DHT22;18338;53.240;8.798;2023-06-04T00:12:03;9.80;99.90
31765;DHT22;18338;53.240;8.798;2023-06-04T00:14:30;9.80;99.90
31765;DHT22;18338;53.240;8.798;2023-06-04T00:17:00;9.80;99.90
31765;DHT22;18338;53.240;8.798;2023-06-04T00:19:27;9.80;99.90
31765;DHT22;18338;53.240;8.798;2023-06-04T00:21:54;9.70;99.90
31765;DHT22;18338;53.240;8.798;2023-06-04T00:24:21;9.70;99.90
31765;DHT22;18338;53.240;8.798;2023-06-04T00:26:48;9.70;99.90
31765;DHT22;18338;53.240;8.798;2023-06-04T00:29:15;9.70;99.90
31765;DHT22;18338;53.240;8.798;2023-06-04T00:31:42;9.70;99.90
31765;DHT22;18338;53.240;8.798;2023-06-04T00:34:10;9.70;99.90
31765;DHT22;18338;53.240;8.798;2023-06-04T00:36:39;9.60;99.90
31765;DHT22;18338;53.240;8.798;2023-06-04T00:39:06;9.60;99.90
31765;DHT22;18338;53.240;8.798;2023-06-04T00:41:33;9.60;99.90
31765;DHT22;18338;53.240;8.798;2023-06-04T00:43:59;9.50;99.90
31765;DHT22;18338;53.240;8.798;2023-06-04T00:46:28;9.50;99.90
31765;DHT22;18338;53.240;8.798;2023-06-04T00:48:56;9.40;99.90
31765;DHT22;18338;53.240;8.798;2023-06-04T00:51:22;9.40;99.90
31765;DHT22;18338;53.240;8.798;2023-06-04T00:53:50;9.30;99.90
31765;DHT22;18338;53.240;8.798;2023-06-04T00:56:18;9.30;99.90
31765;DHT22;18338;53.240;8.798;2023-06-04T00:58:46;9.30;99.90
31765;DHT22;18338;53.240;8.798;2023-06-04T01:04:01;9.30;99.90
31765;DHT22;18338;53.240;8.798;2023-06-04T01:06:39;9.20;99.90
31765;DHT22;18338;53.240;8.798;2023-06-04T01:09:09;9.20;99.90
31765;DHT22;18338;53.240;8.798;2023-06-04T01:11:38;9.20;99.90
31765;DHT22;18338;53.240;8.798;2023-06-04T01:14:07;9.20;99.90
31765;DHT22;18338;53.240;8.798;2023-06-04T01:16:47;9.10;99.90
31765;DHT22;18338;53.240;8.798;2023-06-04T01:19:47;9.10;99.90
31765;DHT22;18338;53.240;8.798;2023-06-04T01:22:39;9.10;99.90
31765;DHT22;18338;53.240;8.798;2023-06-04T01:25:27;9.00;99.90
31765;DHT22;18338;53.240;8.798;2023-06-04T01:28:02;9.00;99.90
31765;DHT22;18338;53.240;8.798;2023-06-04T01:30:35;9.00;99.90
31765;DHT22;18338;53.240;8.798;2023-06-04T01:33:03;8.90;99.90
31765;DHT22;18338;53.240;8.798;2023-06-04T01:35:30;8.90;99.90
31765;DHT22;18338;53.240;8.798;2023-06-04T01:37:59;8.80;99.90
31765;DHT22;18338;53.240;8.798;2023-06-04T01:40:26;8.80;99.90
31765;DHT22;18338;53.240;8.798;2023-06-04T01:42:54;8.80;99.90
31765;DHT22;18338;53.240;8.798;2023-06-04T01:45:22;8.70;99.90
31765;DHT22;18338;53.240;8.798;2023-06-04T01:47:49;8.60;99.90
31765;DHT22;18338;53.240;8.798;2023-06-04T01:50:16;8.60;99.90
31765;DHT22;18338;53.240;8.798;2023-06-04T01:52:43;8.50;99.90
31765;DHT22;18338;53.240;8.798;2023-06-04T01:55:14;8.50;99.90
31765;DHT22;18338;53.240;8.798;2023-06-04T01:57:42;8.50;99.90
31765;DHT22;18338;53.240;8.798;2023-06-04T02:00:11;8.40;99.90
31765;DHT22;18338;53.240;8.798;2023-06-04T02:02:43;8.40;99.90
31765;DHT22;18338;53.240;8.798;2023-06-04T02:05:10;8.40;99.90
31765;DHT22;18338;53.240;8.798;2023-06-04T02:07:38;8.40;99.90
31765;DHT22;18338;53.240;8.798;2023-06-04T02:10:07;8.40;99.90
31765;DHT22;18338;53.240;8.798;2023-06-04T02:12:39;8.50;99.90
31765;DHT22;18338;53.240;8.798;2023-06-04T02:15:09;8.50;99.90
31765;DHT22;18338;53.240;8.798;2023-06-04T02:17:36;8.40;99.90
31765;DHT22;18338;53.240;8.798;2023-06-04T02:20:07;8.40;99.90
31765;DHT22;18338;53.240;8.798;2023-06-04T02:22:36;8.30;99.90
31765;DHT22;18338;53.240;8.798;2023-06-04T02:25:06;8.20;99.90
31765;DHT22;18338;53.240;8.798;2023-06-04T02:27:35;8.10;99.90
31765;DHT22;18338;53.240;8.798;2023-06-04T02:30:03;8.10;99.90
31765;DHT22;18338;53.240;8.798;2023-06-04T02:32:30;8.00;99.90
31765;DHT22;18338;53.240;8.798;2023-06-04T02:34:57;8.00;99.90
31765;DHT22;18338;53.240;8.798;2023-06-04T02:37:24;8.10;99.90
31765;DHT22;18338;53.240;8.798;2023-06-04T02:39:51;8.20;99.90
31765;DHT22;18338;53.240;8.798;2023-06-04T02:42:18;8.20;99.90
31765;DHT22;18338;53.240;8.798;2023-06-04T02:44:45;8.30;99.90
31765;DHT22;18338;53.240;8.798;2023-06-04T02:47:11;8.30;99.90
31765;DHT22;18338;53.240;8.798;2023-06-04T02:49:38;8.30;99.90
31765;DHT22;18338;53.240;8.798;2023-06-04T02:52:05;8.20;99.90
31765;DHT22;18338;53.240;8.798;2023-06-04T02:54:32;8.10;99.90
31765;DHT22;18338;53.240;8.798;2023-06-04T02:56:59;8.10;99.90
31765;DHT22;18338;53.240;8.798;2023-06-04T02:59:26;8.00;99.90
31765;DHT22;18338;53.240;8.798;2023-06-04T03:01:53;8.00;99.90
31765;DHT22;18338;53.240;8.798;2023-06-04T03:04:20;7.90;99.90
31765;DHT22;18338;53.240;8.798;2023-06-04T03:06:48;7.90;99.90
31765;DHT22;18338;53.240;8.798;2023-06-04T03:09:19;7.90;99.90
31765;DHT22;18338;53.240;8.798;2023-06-04T03:11:46;8.00;99.90
31765;DHT22;18338;53.240;8.798;2023-06-04T03:14:13;8.00;99.90
31765;DHT22;18338;53.240;8.798;2023-06-04T03:16:40;8.00;99.90
31765;DHT22;18338;53.240;8.798;2023-06-04T03:19:07;7.90;99.90
31765;DHT22;18338;53.240;8.798;2023-06-04T03:21:35;7.80;99.90
31765;DHT22;18338;53.240;8.798;2023-06-04T03:24:02;7.80;99.90
31765;DHT22;18338;53.240;8.798;2023-06-04T03:26:31;7.80;99.90
31765;DHT22;18338;53.240;8.798;2023-06-04T03:31:12;7.80;99.90
31765;DHT22;18338;53.240;8.798;2023-06-04T03:33:39;7.90;99.90
31765;DHT22;18338;53.240;8.798;2023-06-04T03:36:06;7.90;99.90
31765;DHT22;18338;53.240;8.798;2023-06-04T03:38:34;7.90;99.90
31765;DHT22;18338;53.240;8.798;2023-06-04T03:41:01;7.90;99.90
31765;DHT22;18338;53.240;8.798;2023-06-04T03:43:28;8.00;99.90
31765;DHT22;18338;53.240;8.798;2023-06-04T03:45:58;8.10;99.90
31765;DHT22;18338;53.240;8.798;2023-06-04T03:48:30;8.20;99.90
31765;DHT22;18338;53.240;8.798;2023-06-04T03:51:01;8.30;99.90
31765;DHT22;18338;53.240;8.798;2023-06-04T03:53:27;8.30;99.90
31765;DHT22;18338;53.240;8.798;2023-06-04T03:55:54;8.40;99.90
31765;DHT22;18338;53.240;8.798;2023-06-04T03:58:21;8.50;99.90
31765;DHT22;18338;53.240;8.798;2023-06-04T04:00:48;8.60;99.90
31765;DHT22;18338;53.240;8.798;2023-06-04T04:03:15;8.70;99.90
31765;DHT22;18338;53.240;8.798;2023-06-04T04:05:43;8.80;99.90
31765;DHT22;18338;53.240;8.798;2023-06-04T04:08:09;8.80;99.90
31765;DHT22;18338;53.240;8.798;2023-06-04T04:10:36;8.90;99.90
31765;DHT22;18338;53.240;8.798;2023-06-04T04:13:03;9.00;99.90
31765;DHT22;18338;53.240;8.798;2023-06-04T04:15:29;9.10;99.90
31765;DHT22;18338;53.240;8.798;2023-06-04T04:17:57;9.10;99.90
31765;DHT22;18338;53.240;8.798;2023-06-04T04:20:24;9.10;99.90
31765;DHT22;18338;53.240;8.798;2023-06-04T04:22:52;9.20;99.90
31765;DHT22;18338;53.240;8.798;2023-06-04T04:25:19;9.30;99.90
31765;DHT22;18338;53.240;8.798;2023-06-04T04:27:46;9.30;99.90
31765;DHT22;18338;53.240;8.798;2023-06-04T04:30:15;9.40;99.90
31765;DHT22;18338;53.240;8.798;2023-06-04T04:32:43;9.40;99.90
31765;DHT22;18338;53.240;8.798;2023-06-04T04:35:16;9.50;99.90
31765;DHT22;18338;53.240;8.798;2023-06-04T04:37:45;9.50;99.90
31765;DHT22;18338;53.240;8.798;2023-06-04T04:40:12;9.60;99.90
31765;DHT22;18338;53.240;8.798;2023-06-04T04:42:40;9.60;99.90
31765;DHT22;18338;53.240;8.798;2023-06-04T04:45:08;9.70;99.90
31765;DHT22;18338;53.240;8.798;2023-06-04T04:47:35;9.80;99.90
31765;DHT22;18338;53.240;8.798;2023-06-04T04:50:02;9.80;99.90
31765;DHT22;18338;53.240;8.798;2023-06-04T04:52:29;9.90;99.90
31765;DHT22;18338;53.240;8.798;2023-06-04T04:54:57;9.90;99.90
31765;DHT22;18338;53.240;8.798;2023-06-04T04:57:25;10.00;99.90
31765;DHT22;18338;53.240;8.798;2023-06-04T05:00:03;10.10;99.90
31765;DHT22;18338;53.240;8.798;2023-06-04T05:02:34;10.20;99.90
31765;DHT22;18338;53.240;8.798;2023-06-04T05:05:01;10.30;99.90
31765;DHT22;18338;53.240;8.798;2023-06-04T05:07:28;10.40;99.90
31765;DHT22;18338;53.240;8.798;2023-06-04T05:09:55;10.50;99.90
31765;DHT22;18338;53.240;8.798;2023-06-04T05:12:24;10.60;99.90
31765;DHT22;18338;53.240;8.798;2023-06-04T05:14:51;10.70;99.90
31765;DHT22;18338;53.240;8.798;2023-06-04T05:17:18;10.80;99.90
31765;DHT22;18338;53.240;8.798;2023-06-04T05:19:56;10.80;99.90
31765;DHT22;18338;53.240;8.798;2023-06-04T05:22:39;10.90;99.90
31765;DHT22;18338;53.240;8.798;2023-06-04T05:25:06;11.00;99.90
31765;DHT22;18338;53.240;8.798;2023-06-04T05:27:33;11.10;99.90
31765;DHT22;18338;53.240;8.798;2023-06-04T05:29:59;11.20;99.90
31765;DHT22;18338;53.240;8.798;2023-06-04T05:32:27;11.30;99.90
31765;DHT22;18338;53.240;8.798;2023-06-04T05:34:59;11.40;99.90
31765;DHT22;18338;53.240;8.798;2023-06-04T05:37:26;11.50;99.90
31765;DHT22;18338;53.240;8.798;2023-06-04T05:40:04;11.60;99.90
31765;DHT22;18338;53.240;8.798;2023-06-04T05:42:32;11.60;99.90
31765;DHT22;18338;53.240;8.798;2023-06-04T05:44:58;11.70;99.90
31765;DHT22;18338;53.240;8.798;2023-06-04T05:47:27;11.80;99.90
31765;DHT22;18338;53.240;8.798;2023-06-04T05:50:04;11.90;99.90
31765;DHT22;18338;53.240;8.798;2023-06-04T05:52:37;12.00;99.90
31765;DHT22;18338;53.240;8.798;2023-06-04T05:55:05;12.10;99.90
31765;DHT22;18338;53.240;8.798;2023-06-04T05:57:34;12.20;99.90
31765;DHT22;18338;53.240;8.798;2023-06-04T06:00:02;12.30;99.90
31765;DHT22;18338;53.240;8.798;2023-06-04T06:02:32;12.40;99.90
31765;DHT22;18338;53.240;8.798;2023-06-04T06:04:59;12.50;99.90
31765;DHT22;18338;53.240;8.798;2023-06-04T06:07:26;12.60;99.90
31765;DHT22;18338;53.240;8.798;2023-06-04T06:09:53;12.80;99.90
31765;DHT22;18338;53.240;8.798;2023-06-04T06:12:19;12.90;99.90
31765;DHT22;18338;53.240;8.798;2023-06-04T06:14:46;13.00;99.90
31765;DHT22;18338;53.240;8.798;2023-06-04T06:17:13;13.10;99.90
31765;DHT22;18338;53.240;8.798;2023-06-04T06:19:39;13.30;99.90
31765;DHT22;18338;53.240;8.798;2023-06-04T06:22:06;13.40;99.90
31765;DHT22;18338;53.240;8.798;2023-06-04T06:24:33;13.40;99.90
31765;DHT22;18338;53.240;8.798;2023-06-04T06:27:00;13.60;99.90
31765;DHT22;18338;53.240;8.798;2023-06-04T06:29:27;13.60;99.90
31765;DHT22;18338;53.240;8.798;2023-06-04T06:31:54;13.70;99.90
31765;DHT22;18338;53.240;8.798;2023-06-04T06:34:21;13.90;99.90
31765;DHT22;18338;53.240;8.798;2023-06-04T06:36:47;14.00;99.90
31765;DHT22;18338;53.240;8.798;2023-06-04T06:39:14;14.10;99.90
31765;DHT22;18338;53.240;8.798;2023-06-04T06:41:42;14.20;99.90
31765;DHT22;18338;53.240;8.798;2023-06-04T06:44:08;14.30;99.90
31765;DHT22;18338;53.240;8.798;2023-06-04T06:46:35;14.50;99.90
31765;DHT22;18338;53.240;8.798;2023-06-04T06:49:02;14.70;99.90
31765;DHT22;18338;53.240;8.798;2023-06-04T06:51:28;14.80;99.90
31765;DHT22;18338;53.240;8.798;2023-06-04T06:53:55;14.90;99.90
31765;DHT22;18338;53.240;8.798;2023-06-04T06:56:22;15.00;99.90
31765;DHT22;18338;53.240;8.798;2023-06-04T06:58:48;15.10;99.90
31765;DHT22;18338;53.240;8.798;2023-06-04T07:01:15;15.20;99.90
31765;DHT22;18338;53.240;8.798;2023-06-04T07:03:42;15.40;99.90
31765;DHT22;18338;53.240;8.798;2023-06-04T07:06:09;15.60;99.90
31765;DHT22;18338;53.240;8.798;2023-06-04T07:08:36;15.70;99.90
31765;DHT22;18338;53.240;8.798;2023-06-04T07:11:03;15.80;99.90
31765;DHT22;18338;53.240;8.798;2023-06-04T07:13:29;15.90;99.90
31765;DHT22;18338;53.240;8.798;2023-06-04T07:16:10;16.10;99.90
31765;DHT22;18338;53.240;8.798;2023-06-04T07:18:47;16.20;99.90
31765;DHT22;18338;53.240;8.798;2023-06-04T07:21:14;16.30;99.90
31765;DHT22;18338;53.240;8.798;2023-06-04T07:23:41;16.30;99.90
31765;DHT22;18338;53.240;8.798;2023-06-04T07:26:08;16.50;99.90
31765;DHT22;18338;53.240;8.798;2023-06-04T07:28:35;16.60;99.90
31765;DHT22;18338;53.240;8.798;2023-06-04T07:31:02;16.80;99.90
31765;DHT22;18338;53.240;8.798;2023-06-04T07:33:28;16.90;99.90
31765;DHT22;18338;53.240;8.798;2023-06-04T07:35:55;17.00;99.90
31765;DHT22;18338;53.240;8.798;2023-06-04T07:38:22;17.00;99.90
31765;DHT22;18338;53.240;8.798;2023-06-04T07:40:49;17.20;99.90
31765;DHT22;18338;53.240;8.798;2023-06-04T07:43:15;17.30;99.90
31765;DHT22;18338;53.240;8.798;2023-06-04T07:45:42;17.50;99.90
31765;DHT22;18338;53.240;8.798;2023-06-04T07:48:09;17.60;99.90
31765;DHT22;18338;53.240;8.798;2023-06-04T07:50:39;17.60;99.90
31765;DHT22;18338;53.240;8.798;2023-06-04T07:53:06;17.80;99.90
31765;DHT22;18338;53.240;8.798;2023-06-04T07:55:33;17.80;99.90
31765;DHT22;18338;53.240;8.798;2023-06-04T07:58:00;17.90;99.90
31765;DHT22;18338;53.240;8.798;2023-06-04T08:00:28;18.10;99.90
31765;DHT22;18338;53.240;8.798;2023-06-04T08:02:55;18.20;99.90
31765;DHT22;18338;53.240;8.798;2023-06-04T08:05:23;18.30;99.90
31765;DHT22;18338;53.240;8.798;2023-06-04T08:07:52;18.20;99.90
31765;DHT22;18338;53.240;8.798;2023-06-04T08:10:20;18.70;99.90
31765;DHT22;18338;53.240;8.798;2023-06-04T08:12:47;20.40;99.90
31765;DHT22;18338;53.240;8.798;2023-06-04T08:15:15;23.00;99.90
31765;DHT22;18338;53.240;8.798;2023-06-04T08:17:44;25.30;91.90
31765;DHT22;18338;53.240;8.798;2023-06-04T08:20:11;26.80;83.30
31765;DHT22;18338;53.240;8.798;2023-06-04T08:22:38;28.00;77.30
31765;DHT22;18338;53.240;8.798;2023-06-04T08:25:05;28.80;75.20
31765;DHT22;18338;53.240;8.798;2023-06-04T08:27:32;29.20;69.60
31765;DHT22;18338;53.240;8.798;2023-06-04T08:30:00;30.20;66.50
31765;DHT22;18338;53.240;8.798;2023-06-04T08:32:27;29.60;62.70
31765;DHT22;18338;53.240;8.798;2023-06-04T08:34:55;29.70;64.80
31765;DHT22;18338;53.240;8.798;2023-06-04T08:37:22;30.40;63.50
31765;DHT22;18338;53.240;8.798;2023-06-04T08:39:51;30.80;62.00
31765;DHT22;18338;53.240;8.798;2023-06-04T08:42:31;31.90;59.90
31765;DHT22;18338;53.240;8.798;2023-06-04T08:44:58;31.30;58.60
31765;DHT22;18338;53.240;8.798;2023-06-04T08:47:26;32.70;58.20
31765;DHT22;18338;53.240;8.798;2023-06-04T08:49:59;32.80;57.00
31765;DHT22;18338;53.240;8.798;2023-06-04T08:52:26;32.90;55.00
31765;DHT22;18338;53.240;8.798;2023-06-04T08:54:54;32.50;55.70
31765;DHT22;18338;53.240;8.798;2023-06-04T08:57:21;32.90;55.00
31765;DHT22;18338;53.240;8.798;2023-06-04T08:59:48;33.60;55.30
31765;DHT22;18338;53.240;8.798;2023-06-04T09:02:18;34.40;51.80
31765;DHT22;18338;53.240;8.798;2023-06-04T09:04:45;33.30;51.50
31765;DHT22;18338;53.240;8.798;2023-06-04T09:07:13;33.80;52.00
31765;DHT22;18338;53.240;8.798;2023-06-04T09:09:44;34.10;53.30
31765;DHT22;18338;53.240;8.798;2023-06-04T09:12:24;34.80;51.70
31765;DHT22;18338;53.240;8.798;2023-06-04T09:14:51;35.60;50.90
31765;DHT22;18338;53.240;8.798;2023-06-04T09:17:24;35.50;49.90
31765;DHT22;18338;53.240;8.798;2023-06-04T09:19:51;36.00;48.80
31765;DHT22;18338;53.240;8.798;2023-06-04T09:22:18;36.40;48.90
31765;DHT22;18338;53.240;8.798;2023-06-04T09:24:46;37.30;47.50
31765;DHT22;18338;53.240;8.798;2023-06-04T09:27:17;36.90;46.50
31765;DHT22;18338;53.240;8.798;2023-06-04T09:29:50;36.60;47.70
31765;DHT22;18338;53.240;8.798;2023-06-04T09:32:25;37.20;47.90
31765;DHT22;18338;53.240;8.798;2023-06-04T09:34:56;37.40;46.60
31765;DHT22;18338;53.240;8.798;2023-06-04T09:37:35;37.00;47.10
31765;DHT22;18338;53.240;8.798;2023-06-04T09:40:02;36.90;48.60
31765;DHT22;18338;53.240;8.798;2023-06-04T09:42:42;37.20;48.70
31765;DHT22;18338;53.240;8.798;2023-06-04T09:45:09;37.00;47.10
31765;DHT22;18338;53.240;8.798;2023-06-04T09:47:43;37.00;47.90
31765;DHT22;18338;53.240;8.798;2023-06-04T09:50:13;37.40;48.70
31765;DHT22;18338;53.240;8.798;2023-06-04T09:52:40;38.00;47.60
31765;DHT22;18338;53.240;8.798;2023-06-04T09:55:17;36.80;46.40
31765;DHT22;18338;53.240;8.798;2023-06-04T09:57:49;36.00;46.20
31765;DHT22;18338;53.240;8.798;2023-06-04T10:00:20;35.40;47.00
31765;DHT22;18338;53.240;8.798;2023-06-04T10:02:56;36.20;49.20
31765;DHT22;18338;53.240;8.798;2023-06-04T10:05:24;36.50;48.30
31765;DHT22;18338;53.240;8.798;2023-06-04T10:07:51;36.90;46.30
31765;DHT22;18338;53.240;8.798;2023-06-04T10:10:47;36.90;46.10
31765;DHT22;18338;53.240;8.798;2023-06-04T10:13:26;35.70;45.30
31765;DHT22;18338;53.240;8.798;2023-06-04T10:15:57;35.50;45.80
31765;DHT22;18338;53.240;8.798;2023-06-04T10:18:26;35.30;47.30
31765;DHT22;18338;53.240;8.798;2023-06-04T10:20:55;35.10;47.10
31765;DHT22;18338;53.240;8.798;2023-06-04T10:23:23;34.50;49.00
31765;DHT22;18338;53.240;8.798;2023-06-04T10:25:51;34.50;47.90
31765;DHT22;18338;53.240;8.798;2023-06-04T10:28:21;34.70;46.60
31765;DHT22;18338;53.240;8.798;2023-06-04T10:30:49;34.20;48.10
31765;DHT22;18338;53.240;8.798;2023-06-04T10:33:21;35.10;47.20
31765;DHT22;18338;53.240;8.798;2023-06-04T10:35:55;35.70;47.50
31765;DHT22;18338;53.240;8.798;2023-06-04T10:38:22;35.60;47.50
31765;DHT22;18338;53.240;8.798;2023-06-04T10:40:50;36.30;48.70
31765;DHT22;18338;53.240;8.798;2023-06-04T10:43:17;37.10;46.60
31765;DHT22;18338;53.240;8.798;2023-06-04T10:45:44;37.50;46.00
31765;DHT22;18338;53.240;8.798;2023-06-04T10:48:12;36.50;46.40
31765;DHT22;18338;53.240;8.798;2023-06-04T10:50:51;36.20;48.00
31765;DHT22;18338;53.240;8.798;2023-06-04T10:53:18;36.90;47.40
31765;DHT22;18338;53.240;8.798;2023-06-04T10:55:47;37.40;51.00
31765;DHT22;18338;53.240;8.798;2023-06-04T10:58:14;38.60;43.60
31765;DHT22;18338;53.240;8.798;2023-06-04T11:00:44;37.90;43.60
31765;DHT22;18338;53.240;8.798;2023-06-04T11:03:16;37.80;43.00
31765;DHT22;18338;53.240;8.798;2023-06-04T11:05:45;37.50;46.20
31765;DHT22;18338;53.240;8.798;2023-06-04T11:08:13;37.60;47.20
31765;DHT22;18338;53.240;8.798;2023-06-04T11:10:44;38.00;46.50
31765;DHT22;18338;53.240;8.798;2023-06-04T11:13:12;37.90;48.30
31765;DHT22;18338;53.240;8.798;2023-06-04T11:15:43;38.70;46.50
31765;DHT22;18338;53.240;8.798;2023-06-04T11:18:17;39.10;45.70
31765;DHT22;18338;53.240;8.798;2023-06-04T11:20:44;39.60;43.80
31765;DHT22;18338;53.240;8.798;2023-06-04T11:23:13;38.90;45.80
31765;DHT22;18338;53.240;8.798;2023-06-04T11:25:40;39.10;44.90
31765;DHT22;18338;53.240;8.798;2023-06-04T11:28:19;39.50;44.20
31765;DHT22;18338;53.240;8.798;2023-06-04T11:31:01;39.30;45.70
31765;DHT22;18338;53.240;8.798;2023-06-04T11:33:30;40.20;44.40
31765;DHT22;18338;53.240;8.798;2023-06-04T11:35:56;39.50;43.90
31765;DHT22;18338;53.240;8.798;2023-06-04T11:38:23;39.50;45.70
31765;DHT22;18338;53.240;8.798;2023-06-04T11:40:59;40.20;42.60
31765;DHT22;18338;53.240;8.798;2023-06-04T11:43:28;40.00;44.20
31765;DHT22;18338;53.240;8.798;2023-06-04T11:45:55;40.00;44.10
31765;DHT22;18338;53.240;8.798;2023-06-04T11:48:22;39.00;43.30
31765;DHT22;18338;53.240;8.798;2023-06-04T11:50:49;39.90;44.00
31765;DHT22;18338;53.240;8.798;2023-06-04T11:53:16;39.40;43.40
31765;DHT22;18338;53.240;8.798;2023-06-04T11:55:43;39.00;44.00
31765;DHT22;18338;53.240;8.798;2023-06-04T11:58:10;38.40;43.80
31765;DHT22;18338;53.240;8.798;2023-06-04T12:00:36;36.40;44.60
31765;DHT22;18338;53.240;8.798;2023-06-04T12:03:03;36.10;46.20
31765;DHT22;18338;53.240;8.798;2023-06-04T12:05:31;37.00;47.40
31765;DHT22;18338;53.240;8.798;2023-06-04T12:08:09;36.30;46.60
31765;DHT22;18338;53.240;8.798;2023-06-04T12:10:40;37.10;47.50
31765;DHT22;18338;53.240;8.798;2023-06-04T12:13:08;37.90;47.80
31765;DHT22;18338;53.240;8.798;2023-06-04T12:15:35;38.80;45.60
31765;DHT22;18338;53.240;8.798;2023-06-04T12:18:02;39.00;44.80
31765;DHT22;18338;53.240;8.798;2023-06-04T12:20:40;39.40;45.90
31765;DHT22;18338;53.240;8.798;2023-06-04T12:23:18;39.30;45.00
31765;DHT22;18338;53.240;8.798;2023-06-04T12:25:50;39.20;45.80
31765;DHT22;18338;53.240;8.798;2023-06-04T12:28:17;38.80;46.80
31765;DHT22;18338;53.240;8.798;2023-06-04T12:30:44;38.40;48.20
31765;DHT22;18338;53.240;8.798;2023-06-04T12:33:12;39.10;46.70
31765;DHT22;18338;53.240;8.798;2023-06-04T12:35:39;38.10;48.60
31765;DHT22;18338;53.240;8.798;2023-06-04T12:38:05;38.40;48.10
31765;DHT22;18338;53.240;8.798;2023-06-04T12:40:35;36.80;48.70
31765;DHT22;18338;53.240;8.798;2023-06-04T12:43:02;34.60;51.10
31765;DHT22;18338;53.240;8.798;2023-06-04T12:45:28;33.80;53.00
31765;DHT22;18338;53.240;8.798;2023-06-04T12:47:55;32.00;55.10
31765;DHT22;18338;53.240;8.798;2023-06-04T12:50:22;31.70;55.10
31765;DHT22;18338;53.240;8.798;2023-06-04T12:52:49;31.80;55.00
31765;DHT22;18338;53.240;8.798;2023-06-04T12:55:16;32.90;55.30
31765;DHT22;18338;53.240;8.798;2023-06-04T12:57:44;34.10;52.40
31765;DHT22;18338;53.240;8.798;2023-06-04T13:00:11;35.20;51.40
31765;DHT22;18338;53.240;8.798;2023-06-04T13:02:38;33.60;53.00
31765;DHT22;18338;53.240;8.798;2023-06-04T13:05:05;34.90;53.20
31765;DHT22;18338;53.240;8.798;2023-06-04T13:07:32;35.80;51.80
31765;DHT22;18338;53.240;8.798;2023-06-04T13:09:59;36.90;50.30
31765;DHT22;18338;53.240;8.798;2023-06-04T13:12:27;36.90;51.50
31765;DHT22;18338;53.240;8.798;2023-06-04T13:14:53;36.70;51.40
31765;DHT22;18338;53.240;8.798;2023-06-04T13:17:21;35.60;50.50
31765;DHT22;18338;53.240;8.798;2023-06-04T13:19:49;35.50;51.30
31765;DHT22;18338;53.240;8.798;2023-06-04T13:22:16;36.70;51.20
31765;DHT22;18338;53.240;8.798;2023-06-04T13:24:43;36.70;50.20
31765;DHT22;18338;53.240;8.798;2023-06-04T13:27:09;35.50;51.30
31765;DHT22;18338;53.240;8.798;2023-06-04T13:29:36;34.30;53.30
31765;DHT22;18338;53.240;8.798;2023-06-04T13:32:03;34.90;53.00
31765;DHT22;18338;53.240;8.798;2023-06-04T13:34:31;34.30;52.90
31765;DHT22;18338;53.240;8.798;2023-06-04T13:36:58;35.20;52.20
31765;DHT22;18338;53.240;8.798;2023-06-04T13:39:25;34.90;52.10
31765;DHT22;18338;53.240;8.798;2023-06-04T13:41:51;33.80;52.80
31765;DHT22;18338;53.240;8.798;2023-06-04T13:44:21;34.20;53.40
31765;DHT22;18338;53.240;8.798;2023-06-04T13:46:52;34.70;53.40
31765;DHT22;18338;53.240;8.798;2023-06-04T13:49:19;35.30;52.80
31765;DHT22;18338;53.240;8.798;2023-06-04T13:51:47;34.70;54.20
31765;DHT22;18338;53.240;8.798;2023-06-04T13:54:13;34.90;51.90
31765;DHT22;18338;53.240;8.798;2023-06-04T13:56:40;34.40;52.20
31765;DHT22;18338;53.240;8.798;2023-06-04T13:59:06;34.20;53.30
31765;DHT22;18338;53.240;8.798;2023-06-04T14:01:33;34.00;53.70
31765;DHT22;18338;53.240;8.798;2023-06-04T14:04:00;33.70;54.30
31765;DHT22;18338;53.240;8.798;2023-06-04T14:06:27;33.00;54.10
31765;DHT22;18338;53.240;8.798;2023-06-04T14:08:54;33.10;54.50
31765;DHT22;18338;53.240;8.798;2023-06-04T14:11:20;33.00;54.40
31765;DHT22;18338;53.240;8.798;2023-06-04T14:13:47;32.80;54.40
31765;DHT22;18338;53.240;8.798;2023-06-04T14:16:14;32.60;54.90
31765;DHT22;18338;53.240;8.798;2023-06-04T14:18:41;33.30;55.10
31765;DHT22;18338;53.240;8.798;2023-06-04T14:21:08;33.70;54.00
31765;DHT22;18338;53.240;8.798;2023-06-04T14:23:35;33.00;54.00
31765;DHT22;18338;53.240;8.798;2023-06-04T14:26:01;33.00;55.30
31765;DHT22;18338;53.240;8.798;2023-06-04T14:28:28;33.10;54.90
31765;DHT22;18338;53.240;8.798;2023-06-04T14:30:55;32.90;54.80
31765;DHT22;18338;53.240;8.798;2023-06-04T14:33:21;32.50;54.20
31765;DHT22;18338;53.240;8.798;2023-06-04T14:35:48;32.30;55.20
31765;DHT22;18338;53.240;8.798;2023-06-04T14:38:16;32.10;55.80
31765;DHT22;18338;53.240;8.798;2023-06-04T14:40:42;33.10;54.50
31765;DHT22;18338;53.240;8.798;2023-06-04T14:43:12;33.00;54.00
31765;DHT22;18338;53.240;8.798;2023-06-04T14:45:39;32.60;54.80
31765;DHT22;18338;53.240;8.798;2023-06-04T14:48:07;32.40;55.00
31765;DHT22;18338;53.240;8.798;2023-06-04T14:50:42;31.70;55.10
31765;DHT22;18338;53.240;8.798;2023-06-04T14:53:09;31.50;57.60
31765;DHT22;18338;53.240;8.798;2023-06-04T14:55:36;31.50;56.50
31765;DHT22;18338;53.240;8.798;2023-06-04T14:58:03;31.40;56.60
31765;DHT22;18338;53.240;8.798;2023-06-04T15:00:30;31.60;56.10
31765;DHT22;18338;53.240;8.798;2023-06-04T15:02:58;31.70;56.00
31765;DHT22;18338;53.240;8.798;2023-06-04T15:05:26;31.00;55.60
31765;DHT22;18338;53.240;8.798;2023-06-04T15:07:53;29.90;57.20
31765;DHT22;18338;53.240;8.798;2023-06-04T15:10:20;28.90;58.30
31765;DHT22;18338;53.240;8.798;2023-06-04T15:12:46;28.70;59.80
31765;DHT22;18338;53.240;8.798;2023-06-04T15:15:13;29.50;58.50
31765;DHT22;18338;53.240;8.798;2023-06-04T15:17:39;29.40;58.90
31765;DHT22;18338;53.240;8.798;2023-06-04T15:20:07;29.70;58.90
31765;DHT22;18338;53.240;8.798;2023-06-04T15:22:34;29.60;57.90
31765;DHT22;18338;53.240;8.798;2023-06-04T15:25:01;28.90;57.90
31765;DHT22;18338;53.240;8.798;2023-06-04T15:27:27;28.80;59.70
31765;DHT22;18338;53.240;8.798;2023-06-04T15:29:54;28.60;58.30
31765;DHT22;18338;53.240;8.798;2023-06-04T15:32:21;28.40;58.80
31765;DHT22;18338;53.240;8.798;2023-06-04T15:34:47;27.40;59.50
31765;DHT22;18338;53.240;8.798;2023-06-04T15:37:14;27.20;61.30
31765;DHT22;18338;53.240;8.798;2023-06-04T15:39:41;27.20;61.50
31765;DHT22;18338;53.240;8.798;2023-06-04T15:42:08;26.60;61.30
31765;DHT22;18338;53.240;8.798;2023-06-04T15:44:34;26.40;63.00
31765;DHT22;18338;53.240;8.798;2023-06-04T15:47:01;26.60;62.40
31765;DHT22;18338;53.240;8.798;2023-06-04T15:49:28;26.60;62.80